createdAt,value
2018-10-05T00:02:30.810Z,11.63
2018-10-05T00:07:52.796Z,10.73
2018-10-05T00:13:15.094Z,10.03
2018-10-05T00:18:36.890Z,9.20
2018-10-05T00:23:59.126Z,10.03
2018-10-05T00:29:20.915Z,9.90
2018-10-05T00:34:42.965Z,8.53
2018-10-05T00:40:05.762Z,8.83
2018-10-05T00:45:27.738Z,9.73
2018-10-05T00:50:49.479Z,8.70
2018-10-05T00:56:11.582Z,7.77
2018-10-05T01:01:33.678Z,8.50
2018-10-05T01:06:55.571Z,8.27
2018-10-05T01:12:18.819Z,6.80
2018-10-05T01:17:40.918Z,7.00
2018-10-05T01:23:02.916Z,6.77
2018-10-05T01:28:25.148Z,6.70
2018-10-05T01:33:47.075Z,6.47
2018-10-05T01:39:09.387Z,4.93
2018-10-05T01:44:31.792Z,6.73
2018-10-05T01:49:54.319Z,6.63
2018-10-05T01:55:16.293Z,5.47
2018-10-05T02:00:38.525Z,4.93
2018-10-05T02:06:00.767Z,4.47
2018-10-05T02:11:22.714Z,4.40
2018-10-05T02:16:44.611Z,4.90
2018-10-05T02:22:06.831Z,4.50
2018-10-05T02:27:28.847Z,4.80
2018-10-05T02:32:50.917Z,4.43
2018-10-05T02:38:12.847Z,3.70
2018-10-05T02:43:35.168Z,4.67
2018-10-05T02:48:57.545Z,4.30
2018-10-05T02:54:19.330Z,4.17
2018-10-05T02:59:41.622Z,4.03
2018-10-05T03:05:03.432Z,3.63
2018-10-05T03:10:25.181Z,4.80
2018-10-05T03:15:47.314Z,4.10
2018-10-05T03:21:09.383Z,3.60
2018-10-05T03:26:31.353Z,4.03
2018-10-05T03:31:53.253Z,4.43
2018-10-05T03:37:15.441Z,4.40
2018-10-05T03:42:37.267Z,4.77
2018-10-05T03:47:59.093Z,4.83
2018-10-05T03:53:21.221Z,4.70
2018-10-05T03:58:43.102Z,3.90
2018-10-05T04:04:05.403Z,4.63
2018-10-05T04:09:29.173Z,4.53
2018-10-05T04:14:51.294Z,4.43
2018-10-05T04:20:13.675Z,4.43
2018-10-05T04:25:35.676Z,4.23
2018-10-05T04:30:57.885Z,4.40
2018-10-05T04:36:20.084Z,3.63
2018-10-05T04:41:42.476Z,4.67
2018-10-05T04:47:04.738Z,4.87
2018-10-05T04:52:26.731Z,4.37
2018-10-05T04:57:49.258Z,4.47
2018-10-05T05:03:11.577Z,4.20
2018-10-05T05:08:33.361Z,4.47
2018-10-05T05:13:55.111Z,4.73
2018-10-05T05:19:17.350Z,3.77
2018-10-05T05:24:39.206Z,4.17
2018-10-05T05:30:01.456Z,4.73
2018-10-05T05:35:23.189Z,4.70
2018-10-05T05:40:45.197Z,4.90
2018-10-05T05:46:07.194Z,4.80
2018-10-05T05:51:29.598Z,4.20
2018-10-05T05:56:51.374Z,4.17
2018-10-05T06:02:14.282Z,4.00
2018-10-05T06:07:36.722Z,4.50
2018-10-05T06:12:58.902Z,4.10
2018-10-05T06:18:20.879Z,4.63
2018-10-05T06:23:43.235Z,4.90
2018-10-05T06:29:05.013Z,4.03
2018-10-05T06:34:27.382Z,4.53
2018-10-05T06:39:49.236Z,4.10
2018-10-05T06:45:11.441Z,4.77
2018-10-05T06:50:33.345Z,5.10
2018-10-05T06:55:55.147Z,4.77
2018-10-05T07:01:17.167Z,4.17
2018-10-05T07:06:39.102Z,5.00
2018-10-05T07:12:01.147Z,4.47
2018-10-05T07:17:22.930Z,5.00
2018-10-05T07:22:45.226Z,4.37
2018-10-05T07:28:07.305Z,4.50
2018-10-05T07:33:29.438Z,4.87
2018-10-05T07:38:51.543Z,4.63
2018-10-05T07:44:14.765Z,4.60
2018-10-05T07:49:36.651Z,4.27
2018-10-05T07:56:01.589Z,3.90
2018-10-05T08:01:23.513Z,3.80
2018-10-05T08:06:45.224Z,3.70
2018-10-05T08:12:07.831Z,4.10
2018-10-05T08:17:29.523Z,3.60
2018-10-05T08:22:51.678Z,3.97
2018-10-05T08:28:13.522Z,4.40
2018-10-05T08:33:35.661Z,4.37
2018-10-05T08:38:58.133Z,4.87
2018-10-05T08:44:20.353Z,4.60
2018-10-05T08:49:42.416Z,4.23
2018-10-05T08:55:04.736Z,3.60
2018-10-05T09:00:27.100Z,3.30
2018-10-05T09:05:49.341Z,3.73
2018-10-05T09:11:11.543Z,3.67
2018-10-05T09:16:35.791Z,3.67
2018-10-05T09:21:57.481Z,3.70
2018-10-05T09:27:19.225Z,3.63
2018-10-05T09:32:41.323Z,4.13
2018-10-05T09:38:03.157Z,4.90
2018-10-05T09:43:24.848Z,4.87
2018-10-05T09:48:46.985Z,4.60
2018-10-05T09:54:08.854Z,3.70
2018-10-05T09:59:30.934Z,3.63
2018-10-05T10:04:52.830Z,3.80
2018-10-05T10:10:15.093Z,2.87
2018-10-05T10:15:37.155Z,2.83
2018-10-05T10:20:59.606Z,2.50
2018-10-05T10:26:21.332Z,2.83
2018-10-05T10:31:43.458Z,3.10
2018-10-05T10:37:05.312Z,2.80
2018-10-05T10:42:27.528Z,2.87
2018-10-05T10:47:49.548Z,2.70
2018-10-05T10:53:11.831Z,3.00
2018-10-05T10:58:33.667Z,2.50
2018-10-05T11:03:55.717Z,2.93
2018-10-05T11:09:17.527Z,3.07
2018-10-05T11:14:40.614Z,3.03
2018-10-05T11:20:03.086Z,3.33
2018-10-05T11:25:26.848Z,3.40
2018-10-05T11:30:49.131Z,3.20
2018-10-05T11:36:11.059Z,3.23
2018-10-05T11:41:32.745Z,3.50
2018-10-05T11:46:54.991Z,3.50
2018-10-05T11:52:16.876Z,4.40
2018-10-05T11:57:39.413Z,4.07
2018-10-05T12:03:01.191Z,3.93
2018-10-05T12:08:23.530Z,4.53
2018-10-05T12:13:45.419Z,4.77
2018-10-05T12:19:07.564Z,5.07
2018-10-05T12:24:29.334Z,5.73
2018-10-05T12:29:51.887Z,5.10
2018-10-05T12:35:13.613Z,5.57
2018-10-05T12:40:35.643Z,5.20
2018-10-05T12:45:57.543Z,5.47
2018-10-05T12:51:19.770Z,5.40
2018-10-05T12:56:41.631Z,6.47
2018-10-05T13:02:03.734Z,5.03
2018-10-05T13:07:25.636Z,4.50
2018-10-05T13:12:47.948Z,4.57
2018-10-05T13:18:12.284Z,3.70
2018-10-05T13:23:34.029Z,6.43
2018-10-05T13:28:56.297Z,3.93
2018-10-05T13:34:19.385Z,5.17
2018-10-05T13:39:41.321Z,5.67
2018-10-05T13:45:03.394Z,5.07
2018-10-05T13:50:25.171Z,6.03
2018-10-05T13:55:47.357Z,5.73
2018-10-05T14:01:09.682Z,5.37
2018-10-05T14:06:31.913Z,4.17
2018-10-05T14:11:54.108Z,5.43
2018-10-05T14:17:16.273Z,5.57
2018-10-05T14:22:38.412Z,5.23
2018-10-05T14:28:00.377Z,5.47
2018-10-05T14:33:22.646Z,6.33
2018-10-05T14:38:44.942Z,4.40
2018-10-05T14:44:06.911Z,4.20
2018-10-05T14:49:28.862Z,3.90
2018-10-05T14:54:50.825Z,3.33
2018-10-05T15:00:12.737Z,3.20
2018-10-05T15:05:34.782Z,3.50
2018-10-05T15:10:56.810Z,3.30
2018-10-05T15:16:18.869Z,4.20
2018-10-05T15:21:40.574Z,4.10
2018-10-05T15:27:02.368Z,4.57
2018-10-05T15:32:24.555Z,4.27
2018-10-05T15:37:46.524Z,4.40
2018-10-05T15:43:08.756Z,5.50
2018-10-05T15:48:30.515Z,5.70
2018-10-05T15:53:52.706Z,5.83
2018-10-05T15:59:14.551Z,4.80
2018-10-05T16:04:36.625Z,5.13
2018-10-05T16:09:58.365Z,4.73
2018-10-05T16:15:20.726Z,5.50
2018-10-05T16:20:42.670Z,6.30
2018-10-05T16:26:04.783Z,5.50
2018-10-05T16:31:26.570Z,5.47
2018-10-05T16:36:48.789Z,6.50
2018-10-05T16:42:10.551Z,7.10
2018-10-05T16:47:32.952Z,6.37
2018-10-05T16:52:54.639Z,4.07
2018-10-05T16:58:16.843Z,5.33
2018-10-05T17:03:38.748Z,4.40
2018-10-05T17:09:04.086Z,7.47
2018-10-05T17:14:26.002Z,5.87
2018-10-05T17:19:47.752Z,6.93
2018-10-05T17:25:09.746Z,7.20
2018-10-05T17:30:31.522Z,8.57
2018-10-05T17:35:53.627Z,5.70
2018-10-05T17:41:15.796Z,5.10
2018-10-05T17:46:37.952Z,6.93
2018-10-05T17:51:59.833Z,5.93
2018-10-05T17:57:22.032Z,5.00
2018-10-05T18:02:43.939Z,6.53
2018-10-05T18:08:06.116Z,5.30
2018-10-05T18:13:28.029Z,6.67
2018-10-05T18:18:49.792Z,5.87
2018-10-05T18:24:12.074Z,5.00
2018-10-05T18:29:33.878Z,9.97
2018-10-05T18:34:55.994Z,7.03
2018-10-05T18:40:17.962Z,6.73
2018-10-05T18:45:40.153Z,8.20
2018-10-05T18:51:01.932Z,10.20
2018-10-05T18:56:34.091Z,13.47
2018-10-05T19:01:56.190Z,10.93
2018-10-05T19:07:18.027Z,13.77
2018-10-05T19:12:40.188Z,8.27
2018-10-05T19:18:02.134Z,11.97
2018-10-05T19:23:24.366Z,7.47
2018-10-05T19:28:46.294Z,7.77
2018-10-05T19:34:08.648Z,17.70
2018-10-05T19:39:30.554Z,10.57
2018-10-05T19:44:52.622Z,9.60
2018-10-05T19:50:14.500Z,6.57
2018-10-05T19:55:36.567Z,8.50
2018-10-05T20:00:58.589Z,17.33
2018-10-05T20:06:20.833Z,10.97
2018-10-05T20:11:42.602Z,9.43
2018-10-05T20:17:04.405Z,9.37
2018-10-05T20:22:26.582Z,8.07
2018-10-05T20:27:48.521Z,10.10
2018-10-05T20:33:14.336Z,10.90
2018-10-05T20:38:36.560Z,9.37
2018-10-05T20:43:58.455Z,10.33
2018-10-05T20:49:20.553Z,10.40
2018-10-05T20:54:44.178Z,15.23
2018-10-05T21:00:06.446Z,12.23
2018-10-05T21:05:29.817Z,8.43
2018-10-05T21:10:51.530Z,8.43
2018-10-05T21:16:13.639Z,5.03
2018-10-05T21:21:35.434Z,5.87
2018-10-05T21:26:57.598Z,6.27
2018-10-05T21:32:19.374Z,8.53
2018-10-05T21:37:41.722Z,8.13
2018-10-05T21:43:03.706Z,8.17
2018-10-05T21:48:25.721Z,9.17
2018-10-05T21:53:47.611Z,8.43
2018-10-05T21:59:09.731Z,8.07
2018-10-05T22:04:31.628Z,7.80
2018-10-05T22:09:53.341Z,9.30
2018-10-05T22:15:15.462Z,8.10
2018-10-05T22:20:37.237Z,14.13
2018-10-05T22:25:59.342Z,11.17
2018-10-05T22:31:21.141Z,10.33
2018-10-05T22:36:43.403Z,11.83
2018-10-05T22:42:05.522Z,11.50
2018-10-05T22:47:27.986Z,9.00
2018-10-05T22:52:49.685Z,7.40
2018-10-05T22:58:12.105Z,8.70
2018-10-05T23:03:34.417Z,6.23
2018-10-05T23:08:56.422Z,7.37
2018-10-05T23:14:18.979Z,6.90
2018-10-05T23:19:40.760Z,6.33
2018-10-05T23:25:02.956Z,7.40
2018-10-05T23:30:24.849Z,5.63
2018-10-05T23:35:47.145Z,4.20
2018-10-05T23:41:08.954Z,4.23
2018-10-05T23:46:31.271Z,5.07
2018-10-05T23:51:53.037Z,5.57
2018-10-05T23:57:15.262Z,6.67
